sensor_id;sensor_type;location;lat;lon;timestamp;temperature;humidity
3360;DHT22;1693;49.602;11.046;2023-12-07T00:01:47;1.20;99.90
3360;DHT22;1693;49.602;11.046;2023-12-07T00:04:14;1.20;99.90
3360;DHT22;1693;49.602;11.046;2023-12-07T00:06:41;1.20;99.90
3360;DHT22;1693;49.602;11.046;2023-12-07T00:09:08;1.30;99.90
3360;DHT22;1693;49.602;11.046;2023-12-07T00:11:36;1.20;99.90
3360;DHT22;1693;49.602;11.046;2023-12-07T00:14:03;1.30;99.90
3360;DHT22;1693;49.602;11.046;2023-12-07T00:16:32;1.20;99.90
3360;DHT22;1693;49.602;11.046;2023-12-07T00:18:59;1.30;99.90
3360;DHT22;1693;49.602;11.046;2023-12-07T00:21:26;1.30;99.90
3360;DHT22;1693;49.602;11.046;2023-12-07T00:23:53;1.30;99.90
3360;DHT22;1693;49.602;11.046;2023-12-07T00:26:21;1.30;99.90
3360;DHT22;1693;49.602;11.046;2023-12-07T00:28:48;1.30;99.90
3360;DHT22;1693;49.602;11.046;2023-12-07T00:31:16;1.30;99.90
3360;DHT22;1693;49.602;11.046;2023-12-07T00:33:44;1.30;99.90
3360;DHT22;1693;49.602;11.046;2023-12-07T00:36:12;1.20;99.90
3360;DHT22;1693;49.602;11.046;2023-12-07T00:38:39;1.20;99.90
3360;DHT22;1693;49.602;11.046;2023-12-07T00:41:07;1.20;99.90
3360;DHT22;1693;49.602;11.046;2023-12-07T00:43:34;1.30;99.90
3360;DHT22;1693;49.602;11.046;2023-12-07T00:46:01;1.20;99.90
3360;DHT22;1693;49.602;11.046;2023-12-07T00:48:28;1.20;99.90
3360;DHT22;1693;49.602;11.046;2023-12-07T00:50:57;1.20;99.90
3360;DHT22;1693;49.602;11.046;2023-12-07T00:53:24;1.20;99.90
3360;DHT22;1693;49.602;11.046;2023-12-07T00:55:51;1.20;99.90
3360;DHT22;1693;49.602;11.046;2023-12-07T00:58:18;1.30;99.90
3360;DHT22;1693;49.602;11.046;2023-12-07T01:00:45;1.20;99.90
3360;DHT22;1693;49.602;11.046;2023-12-07T01:03:12;1.20;99.90
3360;DHT22;1693;49.602;11.046;2023-12-07T01:05:39;1.20;99.90
3360;DHT22;1693;49.602;11.046;2023-12-07T01:08:08;1.20;99.90
3360;DHT22;1693;49.602;11.046;2023-12-07T01:10:35;1.20;99.90
3360;DHT22;1693;49.602;11.046;2023-12-07T01:13:02;1.20;99.90
3360;DHT22;1693;49.602;11.046;2023-12-07T01:15:30;1.20;99.90
3360;DHT22;1693;49.602;11.046;2023-12-07T01:17:57;1.20;99.90
3360;DHT22;1693;49.602;11.046;2023-12-07T01:20:24;1.30;99.90
3360;DHT22;1693;49.602;11.046;2023-12-07T01:22:53;1.30;99.90
3360;DHT22;1693;49.602;11.046;2023-12-07T01:25:22;1.30;99.90
3360;DHT22;1693;49.602;11.046;2023-12-07T01:27:49;1.40;99.90
3360;DHT22;1693;49.602;11.046;2023-12-07T01:30:17;1.40;99.90
3360;DHT22;1693;49.602;11.046;2023-12-07T01:32:44;1.60;99.90
3360;DHT22;1693;49.602;11.046;2023-12-07T01:35:12;1.70;99.90
3360;DHT22;1693;49.602;11.046;2023-12-07T01:37:39;1.80;99.90
3360;DHT22;1693;49.602;11.046;2023-12-07T01:40:07;2.00;99.90
3360;DHT22;1693;49.602;11.046;2023-12-07T01:42:37;1.80;99.90
3360;DHT22;1693;49.602;11.046;2023-12-07T01:45:06;1.70;99.90
3360;DHT22;1693;49.602;11.046;2023-12-07T01:47:35;1.60;99.90
3360;DHT22;1693;49.602;11.046;2023-12-07T01:50:02;1.60;99.90
3360;DHT22;1693;49.602;11.046;2023-12-07T01:52:32;1.60;99.90
3360;DHT22;1693;49.602;11.046;2023-12-07T01:54:59;1.70;99.90
3360;DHT22;1693;49.602;11.046;2023-12-07T01:57:27;1.60;99.90
3360;DHT22;1693;49.602;11.046;2023-12-07T01:59:56;1.70;99.90
3360;DHT22;1693;49.602;11.046;2023-12-07T02:02:24;1.60;99.90
3360;DHT22;1693;49.602;11.046;2023-12-07T02:04:51;1.60;99.90
3360;DHT22;1693;49.602;11.046;2023-12-07T02:07:18;1.70;99.90
3360;DHT22;1693;49.602;11.046;2023-12-07T02:09:46;1.60;99.90
3360;DHT22;1693;49.602;11.046;2023-12-07T02:12:13;1.60;99.90
3360;DHT22;1693;49.602;11.046;2023-12-07T02:14:41;1.70;99.90
3360;DHT22;1693;49.602;11.046;2023-12-07T02:17:15;1.60;99.90
3360;DHT22;1693;49.602;11.046;2023-12-07T02:19:56;1.60;99.90
3360;DHT22;1693;49.602;11.046;2023-12-07T02:22:27;1.50;99.90
3360;DHT22;1693;49.602;11.046;2023-12-07T02:25:04;1.50;99.90
3360;DHT22;1693;49.602;11.046;2023-12-07T02:27:36;1.50;99.90
3360;DHT22;1693;49.602;11.046;2023-12-07T02:30:05;1.40;99.90
3360;DHT22;1693;49.602;11.046;2023-12-07T02:32:33;1.30;99.90
3360;DHT22;1693;49.602;11.046;2023-12-07T02:35:00;1.30;99.90
3360;DHT22;1693;49.602;11.046;2023-12-07T02:37:30;1.30;99.90
3360;DHT22;1693;49.602;11.046;2023-12-07T02:39:58;1.30;99.90
3360;DHT22;1693;49.602;11.046;2023-12-07T02:42:26;1.20;99.90
3360;DHT22;1693;49.602;11.046;2023-12-07T02:44:56;1.30;99.90
3360;DHT22;1693;49.602;11.046;2023-12-07T02:47:23;1.30;99.90
3360;DHT22;1693;49.602;11.046;2023-12-07T02:49:50;1.30;99.90
3360;DHT22;1693;49.602;11.046;2023-12-07T02:52:17;1.30;99.90
3360;DHT22;1693;49.602;11.046;2023-12-07T02:54:44;1.30;99.90
3360;DHT22;1693;49.602;11.046;2023-12-07T02:57:11;1.30;99.90
3360;DHT22;1693;49.602;11.046;2023-12-07T02:59:40;1.40;99.90
3360;DHT22;1693;49.602;11.046;2023-12-07T03:02:09;1.40;99.90
3360;DHT22;1693;49.602;11.046;2023-12-07T03:04:36;1.50;99.90
3360;DHT22;1693;49.602;11.046;2023-12-07T03:07:04;1.40;99.90
3360;DHT22;1693;49.602;11.046;2023-12-07T03:09:34;1.40;99.90
3360;DHT22;1693;49.602;11.046;2023-12-07T03:12:01;1.40;99.90
3360;DHT22;1693;49.602;11.046;2023-12-07T03:14:28;1.20;99.90
3360;DHT22;1693;49.602;11.046;2023-12-07T03:16:55;1.40;99.90
3360;DHT22;1693;49.602;11.046;2023-12-07T03:19:24;1.40;99.90
3360;DHT22;1693;49.602;11.046;2023-12-07T03:21:51;1.20;99.90
3360;DHT22;1693;49.602;11.046;2023-12-07T03:24:18;1.10;99.90
3360;DHT22;1693;49.602;11.046;2023-12-07T03:26:45;1.10;99.90
3360;DHT22;1693;49.602;11.046;2023-12-07T03:29:12;1.10;99.90
3360;DHT22;1693;49.602;11.046;2023-12-07T03:31:40;0.90;99.90
3360;DHT22;1693;49.602;11.046;2023-12-07T03:34:07;1.00;99.90
3360;DHT22;1693;49.602;11.046;2023-12-07T03:36:35;1.00;99.90
3360;DHT22;1693;49.602;11.046;2023-12-07T03:39:03;0.80;99.90
3360;DHT22;1693;49.602;11.046;2023-12-07T03:41:30;0.80;99.90
3360;DHT22;1693;49.602;11.046;2023-12-07T03:43:57;0.80;99.90
3360;DHT22;1693;49.602;11.046;2023-12-07T03:46:24;0.80;99.90
3360;DHT22;1693;49.602;11.046;2023-12-07T03:48:52;0.70;99.90
3360;DHT22;1693;49.602;11.046;2023-12-07T03:51:19;0.60;99.90
3360;DHT22;1693;49.602;11.046;2023-12-07T03:53:47;0.60;99.90
3360;DHT22;1693;49.602;11.046;2023-12-07T03:56:23;0.50;99.90
3360;DHT22;1693;49.602;11.046;2023-12-07T03:58:50;0.50;99.90
3360;DHT22;1693;49.602;11.046;2023-12-07T04:01:17;0.40;99.90
3360;DHT22;1693;49.602;11.046;2023-12-07T04:03:44;0.40;99.90
3360;DHT22;1693;49.602;11.046;2023-12-07T04:06:12;0.40;99.90
3360;DHT22;1693;49.602;11.046;2023-12-07T04:08:39;0.40;99.90
3360;DHT22;1693;49.602;11.046;2023-12-07T04:11:08;0.40;99.90
3360;DHT22;1693;49.602;11.046;2023-12-07T04:13:36;0.30;99.90
3360;DHT22;1693;49.602;11.046;2023-12-07T04:16:04;0.30;99.90
3360;DHT22;1693;49.602;11.046;2023-12-07T04:18:31;0.30;99.90
3360;DHT22;1693;49.602;11.046;2023-12-07T04:20:58;0.30;99.90
3360;DHT22;1693;49.602;11.046;2023-12-07T04:23:25;0.30;99.90
3360;DHT22;1693;49.602;11.046;2023-12-07T04:25:53;0.30;99.90
3360;DHT22;1693;49.602;11.046;2023-12-07T04:28:21;0.30;99.90
3360;DHT22;1693;49.602;11.046;2023-12-07T04:30:49;0.20;99.90
3360;DHT22;1693;49.602;11.046;2023-12-07T04:33:16;0.20;99.90
3360;DHT22;1693;49.602;11.046;2023-12-07T04:35:43;0.10;99.90
3360;DHT22;1693;49.602;11.046;2023-12-07T04:38:10;0.10;99.90
3360;DHT22;1693;49.602;11.046;2023-12-07T04:40:37;0.10;99.90
3360;DHT22;1693;49.602;11.046;2023-12-07T04:43:05;0.10;99.90
3360;DHT22;1693;49.602;11.046;2023-12-07T04:45:33;0.10;99.90
3360;DHT22;1693;49.602;11.046;2023-12-07T04:48:00;0.10;99.90
3360;DHT22;1693;49.602;11.046;2023-12-07T04:50:29;0.00;99.90
3360;DHT22;1693;49.602;11.046;2023-12-07T04:52:56;0.00;99.90
3360;DHT22;1693;49.602;11.046;2023-12-07T04:55:23;0.00;99.90
3360;DHT22;1693;49.602;11.046;2023-12-07T04:57:51;0.00;99.90
3360;DHT22;1693;49.602;11.046;2023-12-07T05:00:19;-0.10;99.90
3360;DHT22;1693;49.602;11.046;2023-12-07T05:02:48;-0.10;99.90
3360;DHT22;1693;49.602;11.046;2023-12-07T05:05:15;-0.10;99.90
3360;DHT22;1693;49.602;11.046;2023-12-07T05:07:42;-0.20;99.90
3360;DHT22;1693;49.602;11.046;2023-12-07T05:10:10;-0.20;99.90
3360;DHT22;1693;49.602;11.046;2023-12-07T05:15:05;-0.40;99.90
3360;DHT22;1693;49.602;11.046;2023-12-07T05:17:34;-0.40;99.90
3360;DHT22;1693;49.602;11.046;2023-12-07T05:20:04;-0.40;99.90
3360;DHT22;1693;49.602;11.046;2023-12-07T05:22:33;-0.50;99.90
3360;DHT22;1693;49.602;11.046;2023-12-07T05:25:00;-0.50;99.90
3360;DHT22;1693;49.602;11.046;2023-12-07T05:27:27;-0.50;99.90
3360;DHT22;1693;49.602;11.046;2023-12-07T05:29:54;-0.60;99.90
3360;DHT22;1693;49.602;11.046;2023-12-07T05:32:22;-0.60;99.90
3360;DHT22;1693;49.602;11.046;2023-12-07T05:37:18;-0.60;99.90
3360;DHT22;1693;49.602;11.046;2023-12-07T05:42:12;-0.80;99.90
3360;DHT22;1693;49.602;11.046;2023-12-07T05:44:39;-0.30;99.90
3360;DHT22;1693;49.602;11.046;2023-12-07T05:47:06;-0.30;99.90
3360;DHT22;1693;49.602;11.046;2023-12-07T05:49:34;-0.30;99.90
3360;DHT22;1693;49.602;11.046;2023-12-07T05:52:02;-0.30;99.90
3360;DHT22;1693;49.602;11.046;2023-12-07T05:54:31;-0.30;99.90
3360;DHT22;1693;49.602;11.046;2023-12-07T05:56:58;-0.40;99.90
3360;DHT22;1693;49.602;11.046;2023-12-07T05:59:25;-0.40;99.90
3360;DHT22;1693;49.602;11.046;2023-12-07T06:01:52;-0.50;99.90
3360;DHT22;1693;49.602;11.046;2023-12-07T06:04:20;-0.50;99.90
3360;DHT22;1693;49.602;11.046;2023-12-07T06:06:48;-0.50;99.90
3360;DHT22;1693;49.602;11.046;2023-12-07T06:09:15;-0.50;99.90
3360;DHT22;1693;49.602;11.046;2023-12-07T06:11:44;-0.50;99.90
3360;DHT22;1693;49.602;11.046;2023-12-07T06:14:11;-0.50;99.90
3360;DHT22;1693;49.602;11.046;2023-12-07T06:16:38;-0.40;99.90
3360;DHT22;1693;49.602;11.046;2023-12-07T06:19:05;-0.30;99.90
3360;DHT22;1693;49.602;11.046;2023-12-07T06:21:33;-0.30;99.90
3360;DHT22;1693;49.602;11.046;2023-12-07T06:24:00;-0.20;99.90
3360;DHT22;1693;49.602;11.046;2023-12-07T06:26:27;-0.10;99.90
3360;DHT22;1693;49.602;11.046;2023-12-07T06:28:56;-0.10;99.90
3360;DHT22;1693;49.602;11.046;2023-12-07T06:31:24;-0.10;99.90
3360;DHT22;1693;49.602;11.046;2023-12-07T06:33:52;0.10;99.90
3360;DHT22;1693;49.602;11.046;2023-12-07T06:36:20;0.10;99.90
3360;DHT22;1693;49.602;11.046;2023-12-07T06:38:48;0.30;99.90
3360;DHT22;1693;49.602;11.046;2023-12-07T06:41:15;0.30;99.90
3360;DHT22;1693;49.602;11.046;2023-12-07T06:43:43;0.40;99.90
3360;DHT22;1693;49.602;11.046;2023-12-07T06:46:12;0.20;99.90
3360;DHT22;1693;49.602;11.046;2023-12-07T06:48:41;0.10;99.90
3360;DHT22;1693;49.602;11.046;2023-12-07T06:51:08;0.00;99.90
3360;DHT22;1693;49.602;11.046;2023-12-07T06:53:36;0.00;99.90
3360;DHT22;1693;49.602;11.046;2023-12-07T06:56:04;0.00;99.90
3360;DHT22;1693;49.602;11.046;2023-12-07T06:58:31;-0.10;99.90
3360;DHT22;1693;49.602;11.046;2023-12-07T07:00:58;-0.10;99.90
3360;DHT22;1693;49.602;11.046;2023-12-07T07:03:27;-0.10;99.90
3360;DHT22;1693;49.602;11.046;2023-12-07T07:05:54;0.00;99.90
3360;DHT22;1693;49.602;11.046;2023-12-07T07:08:22;0.10;99.90
3360;DHT22;1693;49.602;11.046;2023-12-07T07:10:49;0.00;99.90
3360;DHT22;1693;49.602;11.046;2023-12-07T07:13:16;-0.10;99.90
3360;DHT22;1693;49.602;11.046;2023-12-07T07:15:45;-0.20;99.90
3360;DHT22;1693;49.602;11.046;2023-12-07T07:18:13;-0.20;99.90
3360;DHT22;1693;49.602;11.046;2023-12-07T07:20:42;-0.20;99.90
3360;DHT22;1693;49.602;11.046;2023-12-07T07:23:10;-0.10;99.90
3360;DHT22;1693;49.602;11.046;2023-12-07T07:25:38;-0.10;99.90
3360;DHT22;1693;49.602;11.046;2023-12-07T07:28:05;-0.10;99.90
3360;DHT22;1693;49.602;11.046;2023-12-07T07:30:33;0.00;99.90
3360;DHT22;1693;49.602;11.046;2023-12-07T07:33:00;0.10;99.90
3360;DHT22;1693;49.602;11.046;2023-12-07T07:35:28;0.30;99.90
3360;DHT22;1693;49.602;11.046;2023-12-07T07:37:57;0.60;99.90
3360;DHT22;1693;49.602;11.046;2023-12-07T07:40:24;0.40;99.90
3360;DHT22;1693;49.602;11.046;2023-12-07T07:42:52;0.40;99.90
3360;DHT22;1693;49.602;11.046;2023-12-07T07:45:19;0.40;99.90
3360;DHT22;1693;49.602;11.046;2023-12-07T07:47:46;0.50;99.90
3360;DHT22;1693;49.602;11.046;2023-12-07T07:50:13;0.60;99.90
3360;DHT22;1693;49.602;11.046;2023-12-07T07:52:42;0.50;99.90
3360;DHT22;1693;49.602;11.046;2023-12-07T07:55:11;0.50;99.90
3360;DHT22;1693;49.602;11.046;2023-12-07T07:57:38;0.50;99.90
3360;DHT22;1693;49.602;11.046;2023-12-07T08:00:06;0.40;99.90
3360;DHT22;1693;49.602;11.046;2023-12-07T08:02:34;0.40;99.90
3360;DHT22;1693;49.602;11.046;2023-12-07T08:05:02;0.40;99.90
3360;DHT22;1693;49.602;11.046;2023-12-07T08:07:30;0.40;99.90
3360;DHT22;1693;49.602;11.046;2023-12-07T08:09:57;0.50;99.90
3360;DHT22;1693;49.602;11.046;2023-12-07T08:12:25;0.50;99.90
3360;DHT22;1693;49.602;11.046;2023-12-07T08:14:53;0.60;99.90
3360;DHT22;1693;49.602;11.046;2023-12-07T08:17:20;0.80;99.90
3360;DHT22;1693;49.602;11.046;2023-12-07T08:19:47;0.70;99.90
3360;DHT22;1693;49.602;11.046;2023-12-07T08:22:14;0.70;99.90
3360;DHT22;1693;49.602;11.046;2023-12-07T08:24:43;0.90;99.90
3360;DHT22;1693;49.602;11.046;2023-12-07T08:27:10;0.90;99.90
3360;DHT22;1693;49.602;11.046;2023-12-07T08:29:38;1.00;99.90
3360;DHT22;1693;49.602;11.046;2023-12-07T08:32:06;1.10;99.90
3360;DHT22;1693;49.602;11.046;2023-12-07T08:34:33;1.20;99.90
3360;DHT22;1693;49.602;11.046;2023-12-07T08:37:00;1.20;99.90
3360;DHT22;1693;49.602;11.046;2023-12-07T08:39:29;1.30;99.90
3360;DHT22;1693;49.602;11.046;2023-12-07T08:41:56;1.30;99.90
3360;DHT22;1693;49.602;11.046;2023-12-07T08:44:23;1.30;99.90
3360;DHT22;1693;49.602;11.046;2023-12-07T08:46:51;1.30;99.90
3360;DHT22;1693;49.602;11.046;2023-12-07T08:49:18;1.30;99.90
3360;DHT22;1693;49.602;11.046;2023-12-07T08:51:46;1.30;99.90
3360;DHT22;1693;49.602;11.046;2023-12-07T08:54:13;1.40;99.90
3360;DHT22;1693;49.602;11.046;2023-12-07T08:56:44;1.40;99.90
3360;DHT22;1693;49.602;11.046;2023-12-07T08:59:11;1.40;99.90
3360;DHT22;1693;49.602;11.046;2023-12-07T09:01:38;1.40;99.90
3360;DHT22;1693;49.602;11.046;2023-12-07T09:04:07;1.50;99.90
3360;DHT22;1693;49.602;11.046;2023-12-07T09:06:35;1.50;99.90
3360;DHT22;1693;49.602;11.046;2023-12-07T09:09:03;1.40;99.90
3360;DHT22;1693;49.602;11.046;2023-12-07T09:11:31;1.50;99.90
3360;DHT22;1693;49.602;11.046;2023-12-07T09:13:58;1.50;99.90
3360;DHT22;1693;49.602;11.046;2023-12-07T09:16:26;1.60;99.90
3360;DHT22;1693;49.602;11.046;2023-12-07T09:18:53;1.60;99.90
3360;DHT22;1693;49.602;11.046;2023-12-07T09:21:23;1.70;99.90
3360;DHT22;1693;49.602;11.046;2023-12-07T09:23:50;2.00;99.90
3360;DHT22;1693;49.602;11.046;2023-12-07T09:26:18;2.10;99.90
3360;DHT22;1693;49.602;11.046;2023-12-07T09:28:45;2.20;99.90
3360;DHT22;1693;49.602;11.046;2023-12-07T09:31:12;2.30;99.90
3360;DHT22;1693;49.602;11.046;2023-12-07T09:33:39;2.90;99.90
3360;DHT22;1693;49.602;11.046;2023-12-07T09:36:07;3.30;99.90
3360;DHT22;1693;49.602;11.046;2023-12-07T09:38:36;3.50;99.90
3360;DHT22;1693;49.602;11.046;2023-12-07T09:41:04;3.10;99.90
3360;DHT22;1693;49.602;11.046;2023-12-07T09:43:31;3.10;99.90
3360;DHT22;1693;49.602;11.046;2023-12-07T09:45:59;3.10;99.90
3360;DHT22;1693;49.602;11.046;2023-12-07T09:48:26;3.30;99.90
3360;DHT22;1693;49.602;11.046;2023-12-07T09:50:55;3.70;99.90
3360;DHT22;1693;49.602;11.046;2023-12-07T09:53:23;4.60;99.90
3360;DHT22;1693;49.602;11.046;2023-12-07T09:55:51;4.60;99.90
3360;DHT22;1693;49.602;11.046;2023-12-07T09:58:18;4.60;99.90
3360;DHT22;1693;49.602;11.046;2023-12-07T10:00:47;5.00;99.90
3360;DHT22;1693;49.602;11.046;2023-12-07T10:03:21;4.40;99.90
3360;DHT22;1693;49.602;11.046;2023-12-07T10:05:54;4.80;99.90
3360;DHT22;1693;49.602;11.046;2023-12-07T10:08:29;5.00;99.90
3360;DHT22;1693;49.602;11.046;2023-12-07T10:11:06;4.20;99.90
3360;DHT22;1693;49.602;11.046;2023-12-07T10:13:34;3.80;99.90
3360;DHT22;1693;49.602;11.046;2023-12-07T10:16:12;3.70;99.90
3360;DHT22;1693;49.602;11.046;2023-12-07T10:18:41;3.40;99.90
3360;DHT22;1693;49.602;11.046;2023-12-07T10:21:08;3.40;99.90
3360;DHT22;1693;49.602;11.046;2023-12-07T10:23:36;3.30;99.90
3360;DHT22;1693;49.602;11.046;2023-12-07T10:26:06;3.30;99.90
3360;DHT22;1693;49.602;11.046;2023-12-07T10:28:34;3.30;99.90
3360;DHT22;1693;49.602;11.046;2023-12-07T10:31:03;3.20;99.90
3360;DHT22;1693;49.602;11.046;2023-12-07T10:33:30;3.40;99.90
3360;DHT22;1693;49.602;11.046;2023-12-07T10:35:57;3.30;99.90
3360;DHT22;1693;49.602;11.046;2023-12-07T10:38:25;3.10;99.90
3360;DHT22;1693;49.602;11.046;2023-12-07T10:41:03;3.10;99.90
3360;DHT22;1693;49.602;11.046;2023-12-07T10:43:37;3.30;99.90
3360;DHT22;1693;49.602;11.046;2023-12-07T10:46:05;3.30;99.90
3360;DHT22;1693;49.602;11.046;2023-12-07T10:48:34;3.00;99.90
3360;DHT22;1693;49.602;11.046;2023-12-07T10:51:05;3.00;99.90
3360;DHT22;1693;49.602;11.046;2023-12-07T10:53:38;3.10;99.90
3360;DHT22;1693;49.602;11.046;2023-12-07T10:56:11;3.40;99.90
3360;DHT22;1693;49.602;11.046;2023-12-07T10:58:42;3.70;99.90
3360;DHT22;1693;49.602;11.046;2023-12-07T11:01:14;3.70;99.90
3360;DHT22;1693;49.602;11.046;2023-12-07T11:03:41;3.90;99.90
3360;DHT22;1693;49.602;11.046;2023-12-07T11:06:10;3.80;99.90
3360;DHT22;1693;49.602;11.046;2023-12-07T11:08:43;3.50;99.90
3360;DHT22;1693;49.602;11.046;2023-12-07T11:11:17;3.20;99.90
3360;DHT22;1693;49.602;11.046;2023-12-07T11:13:53;3.10;99.90
3360;DHT22;1693;49.602;11.046;2023-12-07T11:16:36;3.20;99.90
3360;DHT22;1693;49.602;11.046;2023-12-07T11:19:03;3.20;99.90
3360;DHT22;1693;49.602;11.046;2023-12-07T11:21:31;3.20;99.90
3360;DHT22;1693;49.602;11.046;2023-12-07T11:24:00;3.20;99.90
3360;DHT22;1693;49.602;11.046;2023-12-07T11:26:28;3.20;99.90
3360;DHT22;1693;49.602;11.046;2023-12-07T11:28:56;3.20;99.90
3360;DHT22;1693;49.602;11.046;2023-12-07T11:31:23;3.10;99.90
3360;DHT22;1693;49.602;11.046;2023-12-07T11:33:52;3.30;99.90
3360;DHT22;1693;49.602;11.046;2023-12-07T11:36:20;3.10;99.90
3360;DHT22;1693;49.602;11.046;2023-12-07T11:39:18;3.20;99.90
3360;DHT22;1693;49.602;11.046;2023-12-07T11:41:54;3.10;99.90
3360;DHT22;1693;49.602;11.046;2023-12-07T11:44:33;3.20;99.90
3360;DHT22;1693;49.602;11.046;2023-12-07T11:47:00;3.10;99.90
3360;DHT22;1693;49.602;11.046;2023-12-07T11:49:28;3.10;99.90
3360;DHT22;1693;49.602;11.046;2023-12-07T11:51:56;3.20;99.90
3360;DHT22;1693;49.602;11.046;2023-12-07T11:54:23;3.30;99.90
3360;DHT22;1693;49.602;11.046;2023-12-07T11:56:52;3.20;99.90
3360;DHT22;1693;49.602;11.046;2023-12-07T11:59:20;3.30;99.90
3360;DHT22;1693;49.602;11.046;2023-12-07T12:01:49;3.30;99.90
3360;DHT22;1693;49.602;11.046;2023-12-07T12:04:16;3.40;99.90
3360;DHT22;1693;49.602;11.046;2023-12-07T12:06:44;3.40;99.90
3360;DHT22;1693;49.602;11.046;2023-12-07T12:09:12;3.50;99.90
3360;DHT22;1693;49.602;11.046;2023-12-07T12:11:44;3.40;99.90
3360;DHT22;1693;49.602;11.046;2023-12-07T12:14:13;3.60;99.90
3360;DHT22;1693;49.602;11.046;2023-12-07T12:16:41;4.30;99.90
3360;DHT22;1693;49.602;11.046;2023-12-07T12:19:09;4.80;99.90
3360;DHT22;1693;49.602;11.046;2023-12-07T12:21:37;4.90;99.90
3360;DHT22;1693;49.602;11.046;2023-12-07T12:24:06;5.30;99.90
3360;DHT22;1693;49.602;11.046;2023-12-07T12:26:34;5.10;99.90
3360;DHT22;1693;49.602;11.046;2023-12-07T12:29:03;4.90;99.90
3360;DHT22;1693;49.602;11.046;2023-12-07T12:31:30;5.10;99.90
3360;DHT22;1693;49.602;11.046;2023-12-07T12:34:03;5.90;99.90
3360;DHT22;1693;49.602;11.046;2023-12-07T12:36:40;6.00;99.90
3360;DHT22;1693;49.602;11.046;2023-12-07T12:39:07;5.40;99.90
3360;DHT22;1693;49.602;11.046;2023-12-07T12:41:34;5.40;99.90
3360;DHT22;1693;49.602;11.046;2023-12-07T12:44:02;5.40;99.90
3360;DHT22;1693;49.602;11.046;2023-12-07T12:46:34;4.90;99.90
3360;DHT22;1693;49.602;11.046;2023-12-07T12:49:18;5.50;99.90
3360;DHT22;1693;49.602;11.046;2023-12-07T12:52:02;5.40;99.90
3360;DHT22;1693;49.602;11.046;2023-12-07T12:54:31;5.70;99.90
3360;DHT22;1693;49.602;11.046;2023-12-07T12:56:58;6.30;99.90
3360;DHT22;1693;49.602;11.046;2023-12-07T12:59:25;6.10;99.90
3360;DHT22;1693;49.602;11.046;2023-12-07T13:01:53;6.30;99.90
3360;DHT22;1693;49.602;11.046;2023-12-07T13:04:20;6.40;99.90
3360;DHT22;1693;49.602;11.046;2023-12-07T13:06:47;6.60;99.90
3360;DHT22;1693;49.602;11.046;2023-12-07T13:09:17;6.70;99.90
3360;DHT22;1693;49.602;11.046;2023-12-07T13:11:45;6.70;99.90
3360;DHT22;1693;49.602;11.046;2023-12-07T13:14:12;7.00;99.90
3360;DHT22;1693;49.602;11.046;2023-12-07T13:16:40;7.20;99.90
3360;DHT22;1693;49.602;11.046;2023-12-07T13:19:07;6.60;99.90
3360;DHT22;1693;49.602;11.046;2023-12-07T13:21:34;7.30;99.90
3360;DHT22;1693;49.602;11.046;2023-12-07T13:24:01;7.10;99.90
3360;DHT22;1693;49.602;11.046;2023-12-07T13:26:31;6.70;99.90
3360;DHT22;1693;49.602;11.046;2023-12-07T13:28:59;6.20;99.90
3360;DHT22;1693;49.602;11.046;2023-12-07T13:31:26;6.10;99.90
3360;DHT22;1693;49.602;11.046;2023-12-07T13:33:53;6.80;99.90
3360;DHT22;1693;49.602;11.046;2023-12-07T13:36:21;6.60;99.90
3360;DHT22;1693;49.602;11.046;2023-12-07T13:38:49;7.30;99.90
3360;DHT22;1693;49.602;11.046;2023-12-07T13:41:16;6.90;99.90
3360;DHT22;1693;49.602;11.046;2023-12-07T13:43:45;6.80;99.90
3360;DHT22;1693;49.602;11.046;2023-12-07T13:46:14;6.80;99.90
3360;DHT22;1693;49.602;11.046;2023-12-07T13:48:41;7.10;99.90
3360;DHT22;1693;49.602;11.046;2023-12-07T13:51:09;5.90;99.90
3360;DHT22;1693;49.602;11.046;2023-12-07T13:53:37;6.00;99.90
3360;DHT22;1693;49.602;11.046;2023-12-07T13:56:05;6.10;99.90
3360;DHT22;1693;49.602;11.046;2023-12-07T13:58:33;5.80;99.90
3360;DHT22;1693;49.602;11.046;2023-12-07T14:01:03;5.90;99.90
3360;DHT22;1693;49.602;11.046;2023-12-07T14:03:31;5.70;99.90
3360;DHT22;1693;49.602;11.046;2023-12-07T14:05:58;5.00;99.90
3360;DHT22;1693;49.602;11.046;2023-12-07T14:08:25;4.60;99.90
3360;DHT22;1693;49.602;11.046;2023-12-07T14:10:52;4.20;99.90
3360;DHT22;1693;49.602;11.046;2023-12-07T14:13:19;4.00;99.90
3360;DHT22;1693;49.602;11.046;2023-12-07T14:15:46;4.10;99.90
3360;DHT22;1693;49.602;11.046;2023-12-07T14:18:15;3.90;99.90
3360;DHT22;1693;49.602;11.046;2023-12-07T14:20:43;3.80;99.90
3360;DHT22;1693;49.602;11.046;2023-12-07T14:23:10;3.70;99.90
3360;DHT22;1693;49.602;11.046;2023-12-07T14:25:37;3.60;99.90
3360;DHT22;1693;49.602;11.046;2023-12-07T14:28:05;3.50;99.90
3360;DHT22;1693;49.602;11.046;2023-12-07T14:30:33;3.50;99.90
3360;DHT22;1693;49.602;11.046;2023-12-07T14:33:02;3.40;99.90
3360;DHT22;1693;49.602;11.046;2023-12-07T14:35:30;3.20;99.90
3360;DHT22;1693;49.602;11.046;2023-12-07T14:37:58;3.10;99.90
3360;DHT22;1693;49.602;11.046;2023-12-07T14:40:25;2.90;99.90
3360;DHT22;1693;49.602;11.046;2023-12-07T14:42:52;2.80;99.90
3360;DHT22;1693;49.602;11.046;2023-12-07T14:45:20;2.70;99.90
3360;DHT22;1693;49.602;11.046;2023-12-07T14:47:47;2.50;99.90
3360;DHT22;1693;49.602;11.046;2023-12-07T14:50:14;2.50;99.90
3360;DHT22;1693;49.602;11.046;2023-12-07T14:52:43;2.50;99.90
3360;DHT22;1693;49.602;11.046;2023-12-07T14:55:10;2.30;99.90
3360;DHT22;1693;49.602;11.046;2023-12-07T14:57:37;2.20;99.90
3360;DHT22;1693;49.602;11.046;2023-12-07T15:00:06;2.10;99.90
3360;DHT22;1693;49.602;11.046;2023-12-07T15:02:34;1.90;99.90
3360;DHT22;1693;49.602;11.046;2023-12-07T15:05:01;1.80;99.90
3360;DHT22;1693;49.602;11.046;2023-12-07T15:07:30;1.60;99.90
3360;DHT22;1693;49.602;11.046;2023-12-07T15:09:58;1.50;99.90
3360;DHT22;1693;49.602;11.046;2023-12-07T15:12:25;1.50;99.90
3360;DHT22;1693;49.602;11.046;2023-12-07T15:14:53;1.40;99.90
3360;DHT22;1693;49.602;11.046;2023-12-07T15:17:20;1.20;99.90
3360;DHT22;1693;49.602;11.046;2023-12-07T15:19:47;1.00;99.90
3360;DHT22;1693;49.602;11.046;2023-12-07T15:22:14;0.90;99.90
3360;DHT22;1693;49.602;11.046;2023-12-07T15:24:41;0.80;99.90
3360;DHT22;1693;49.602;11.046;2023-12-07T15:27:10;0.70;99.90
3360;DHT22;1693;49.602;11.046;2023-12-07T15:29:37;0.60;99.90
3360;DHT22;1693;49.602;11.046;2023-12-07T15:32:05;0.50;99.90
3360;DHT22;1693;49.602;11.046;2023-12-07T15:34:32;0.40;99.90
3360;DHT22;1693;49.602;11.046;2023-12-07T15:39:28;0.30;99.90
3360;DHT22;1693;49.602;11.046;2023-12-07T15:44:24;0.30;99.90
3360;DHT22;1693;49.602;11.046;2023-12-07T15:46:51;0.30;99.90
3360;DHT22;1693;49.602;11.046;2023-12-07T15:49:19;0.20;99.90
3360;DHT22;1693;49.602;11.046;2023-12-07T15:51:46;0.10;99.90
3360;DHT22;1693;49.602;11.046;2023-12-07T15:54:13;0.00;99.90
3360;DHT22;1693;49.602;11.046;2023-12-07T15:56:41;-0.10;99.90
3360;DHT22;1693;49.602;11.046;2023-12-07T15:59:08;-0.20;99.90
3360;DHT22;1693;49.602;11.046;2023-12-07T16:01:36;-0.30;99.90
3360;DHT22;1693;49.602;11.046;2023-12-07T16:04:04;-0.40;99.90
3360;DHT22;1693;49.602;11.046;2023-12-07T16:06:31;-0.50;99.90
3360;DHT22;1693;49.602;11.046;2023-12-07T16:08:58;-0.60;99.90
3360;DHT22;1693;49.602;11.046;2023-12-07T16:11:25;-0.60;99.90
3360;DHT22;1693;49.602;11.046;2023-12-07T16:13:53;-0.60;99.90
3360;DHT22;1693;49.602;11.046;2023-12-07T16:16:21;-0.70;99.90
3360;DHT22;1693;49.602;11.046;2023-12-07T16:18:49;-0.70;99.90